Nieuwegein, Netherlands

9:34 AM CEST on March 31, 2015 (GMT +0200)
Doorslag | | Change Station
CLOSE
Current Station
Personal Weather Station
Location: Nieuwegein, UT
Elevation: 20 ft
Nearby Weather Stations
Active Advisory: Wind nederlands:

Elev 20 ft 52.02 °N, 5.07 °E | Updated 7 minutes ago

Mostly Cloudy
Mostly Cloudy
50.5 °F
Feels Like 50.5 °F
N
10.1
Wind Variable Wind from West

Today
High -- | Low -- °F
--% Chance of Precip.
Yesterday
High -- | Low -- °F
Precip. -- in
7:17 AM 8:11 PM
Waxing Gibbous, 85% visible
Pressure 29.30 in
Visibility 6.2 miles
Clouds Scattered Clouds 3500 ft
Mostly Cloudy 4000 ft
Mostly Cloudy 4600 ft
Dew Point 17 °F
Humidity 26%
Rainfall 0.29 in
Snow Depth Not available.
UV 1 out of 12
Pollen Not available.
Air Quality Not available.
Flu Activity Not available.
SPECI EHDL 310728Z AUTO 26023G36KT 9999 SCT035 BKN040 BKN046 10/04 Q0992 BLU

More Conditions Fewer Conditions

Pressure 29.30 in
Visibility 6.2 miles
Clouds Scattered Clouds 3500 ft
Mostly Cloudy 4000 ft
Mostly Cloudy 4600 ft
Dew Point 17 °F
Humidity 26%
Rainfall 0.29 in
Snow Depth Not available.
UV 1 out of 12
Pollen Not available.
Air Quality Not available.
Flu Activity Not available.
SPECI EHDL 310728Z AUTO 26023G36KT 9999 SCT035 BKN040 BKN046 10/04 Q0992 BLU

More Conditions Fewer Conditions

10-Day Weather Forecast

Almanac

Astronomy

Mar. 31, 2015 Rise Set
Actual Time
Civil Twilight
Nautical Twilight
Astronomical Twilight
Moon
Length of Visible Light
Length of Day
Tomorrow will be .
, % of the Moon is Illuminated

Today's Extremes

Country Highs Country Lows

Community

WunderPhotos

Upload Photos

1,809,729 photos uploaded!

WunderBlogs® & News

Nearby

Air Quality

  Air Quality AQ Index Pollutant
Not available.

Snow Depth

Station Depth Elevation

Earthquake Activity

City Distance Mag. Time & Date
Minimum magnitude displayed is 2.5.

Coastal Water Temperatures

Place Temperature

Stations

Nearby Weather Stations

Station Location Temp. Windchill Dew Point Humidity Wind Precip. Elev Updated Type